createdAt,value
2024-02-18T00:00:24.610Z,35.78
2024-02-18T00:02:54.322Z,36.90
2024-02-18T00:05:22.440Z,35.15
2024-02-18T00:07:52.094Z,34.95
2024-02-18T00:10:20.314Z,32.72
2024-02-18T00:12:48.751Z,34.42
2024-02-18T00:15:17.325Z,32.25
2024-02-18T00:17:45.629Z,33.72
2024-02-18T00:20:16.563Z,32.20
2024-02-18T00:22:44.923Z,33.05
2024-02-18T00:25:15.011Z,31.67
2024-02-18T00:27:43.196Z,32.35
2024-02-18T00:30:12.350Z,33.45
2024-02-18T00:32:40.518Z,30.98
2024-02-18T00:35:09.302Z,30.10
2024-02-18T00:37:37.524Z,31.52
2024-02-18T00:40:06.379Z,30.50
2024-02-18T00:42:36.035Z,30.15
2024-02-18T00:45:04.137Z,31.30
2024-02-18T00:47:32.268Z,31.30
2024-02-18T00:50:00.529Z,27.75
2024-02-18T00:52:28.700Z,29.95
2024-02-18T00:54:56.876Z,29.67
2024-02-18T00:57:25.149Z,28.17
2024-02-18T00:59:54.664Z,28.08
2024-02-18T01:02:22.809Z,28.52
2024-02-18T01:04:50.929Z,28.02
2024-02-18T01:07:19.209Z,28.63
2024-02-18T01:09:50.694Z,28.02
2024-02-18T01:12:19.035Z,27.40
2024-02-18T01:14:47.164Z,27.20
2024-02-18T01:17:16.683Z,28.95
2024-02-18T01:19:44.865Z,26.70
2024-02-18T01:22:13.167Z,27.48
2024-02-18T01:24:41.298Z,25.60
2024-02-18T01:27:09.565Z,26.55
2024-02-18T01:29:39.979Z,27.65
2024-02-18T01:32:08.805Z,26.08
2024-02-18T01:34:38.284Z,25.52
2024-02-18T01:37:06.549Z,26.00
2024-02-18T01:39:34.717Z,25.73
2024-02-18T01:42:03.529Z,24.70
2024-02-18T01:44:32.146Z,25.98
2024-02-18T01:47:00.276Z,24.13
2024-02-18T01:49:28.544Z,23.38
2024-02-18T01:51:58.224Z,22.85
2024-02-18T01:54:31.419Z,24.05
2024-02-18T01:56:59.896Z,24.65
2024-02-18T01:59:27.989Z,24.15
2024-02-18T02:01:56.147Z,22.05
2024-02-18T02:04:24.544Z,23.45
2024-02-18T02:06:53.956Z,21.95
2024-02-18T02:09:23.563Z,22.00
2024-02-18T02:11:51.772Z,21.48
2024-02-18T02:14:20.067Z,21.40
2024-02-18T02:16:48.323Z,21.60
2024-02-18T02:19:17.142Z,20.92
2024-02-18T02:21:45.557Z,22.77
2024-02-18T02:24:13.724Z,19.90
2024-02-18T02:26:44.341Z,20.60
2024-02-18T02:29:14.274Z,21.77
2024-02-18T02:31:42.562Z,20.63
2024-02-18T02:34:10.739Z,20.15
2024-02-18T02:36:38.998Z,19.67
2024-02-18T02:39:09.059Z,20.17
2024-02-18T02:41:37.300Z,20.17
2024-02-18T02:44:05.772Z,20.40
2024-02-18T02:46:35.251Z,19.83
2024-02-18T02:49:03.545Z,20.95
2024-02-18T02:51:32.246Z,19.48
2024-02-18T02:54:00.794Z,19.25
2024-02-18T02:56:28.917Z,21.38
2024-02-18T02:58:57.013Z,19.48
2024-02-18T03:01:25.305Z,18.98
2024-02-18T03:03:54.980Z,18.70
2024-02-18T03:06:23.250Z,18.98
2024-02-18T03:08:51.634Z,17.35
2024-02-18T03:11:19.904Z,17.17
2024-02-18T03:13:48.080Z,19.98
2024-02-18T03:16:16.568Z,18.40
2024-02-18T03:18:45.050Z,17.95
2024-02-18T03:21:14.686Z,19.13
2024-02-18T03:23:43.936Z,17.83
2024-02-18T03:26:12.652Z,17.10
2024-02-18T03:28:40.755Z,16.48
2024-02-18T03:31:17.046Z,17.15
2024-02-18T03:33:45.221Z,16.10
2024-02-18T03:36:14.726Z,15.93
2024-02-18T03:38:43.071Z,16.50
2024-02-18T03:41:11.274Z,17.17
2024-02-18T03:43:40.308Z,17.60
2024-02-18T03:46:09.737Z,15.95
2024-02-18T03:48:38.002Z,15.63
2024-02-18T03:51:06.351Z,14.80
2024-02-18T03:53:35.878Z,15.10
2024-02-18T03:56:03.995Z,15.55
2024-02-18T03:58:32.864Z,15.60
2024-02-18T04:01:01.291Z,14.73
2024-02-18T04:03:29.557Z,14.93
2024-02-18T04:05:57.699Z,13.95
2024-02-18T04:08:25.905Z,14.57
2024-02-18T04:10:55.368Z,14.52
2024-02-18T04:13:23.491Z,14.13
2024-02-18T04:15:51.598Z,14.23
2024-02-18T04:18:19.815Z,13.70
2024-02-18T04:20:48.019Z,14.57
2024-02-18T04:23:16.184Z,15.38
2024-02-18T04:25:44.289Z,13.95
2024-02-18T04:28:13.921Z,15.25
2024-02-18T04:30:42.061Z,13.40
2024-02-18T04:33:10.283Z,14.18
2024-02-18T04:35:38.411Z,14.52
2024-02-18T04:38:06.539Z,14.57
2024-02-18T04:40:34.663Z,15.50
2024-02-18T04:43:02.842Z,13.35
2024-02-18T04:45:32.380Z,14.50
2024-02-18T04:48:01.455Z,12.85
2024-02-18T04:50:29.631Z,13.48
2024-02-18T04:52:57.753Z,12.13
2024-02-18T04:55:25.921Z,12.68
2024-02-18T04:57:54.121Z,12.15
2024-02-18T05:00:22.442Z,11.68
2024-02-18T05:02:52.056Z,11.98
2024-02-18T05:05:20.386Z,13.32
2024-02-18T05:07:48.547Z,10.88
2024-02-18T05:10:16.805Z,11.68
2024-02-18T05:12:45.052Z,11.50
2024-02-18T05:15:13.521Z,11.23
2024-02-18T05:17:41.905Z,12.52
2024-02-18T05:20:12.946Z,10.90
2024-02-18T05:22:41.715Z,11.45
2024-02-18T05:25:10.460Z,11.98
2024-02-18T05:27:39.045Z,13.13
2024-02-18T05:30:08.732Z,10.68
2024-02-18T05:32:37.126Z,10.93
2024-02-18T05:35:08.309Z,10.70
2024-02-18T05:37:40.119Z,11.20
2024-02-18T05:40:10.156Z,10.70
2024-02-18T05:42:38.380Z,10.98
2024-02-18T05:45:07.252Z,10.85
2024-02-18T05:47:35.441Z,10.07
2024-02-18T05:50:03.734Z,10.57
2024-02-18T05:52:31.980Z,10.18
2024-02-18T05:55:01.620Z,10.27
2024-02-18T05:57:30.123Z,10.73
2024-02-18T05:59:58.179Z,11.20
2024-02-18T06:02:26.579Z,10.25
2024-02-18T06:04:54.693Z,9.68
2024-02-18T06:07:23.039Z,10.25
2024-02-18T06:09:51.310Z,10.13
2024-02-18T06:12:20.828Z,10.05
2024-02-18T06:14:48.929Z,10.00
2024-02-18T06:17:17.017Z,9.70
2024-02-18T06:19:45.242Z,9.30
2024-02-18T06:22:13.413Z,9.10
2024-02-18T06:24:41.615Z,8.80
2024-02-18T06:27:09.737Z,9.07
2024-02-18T06:29:39.223Z,9.65
2024-02-18T06:32:07.917Z,8.75
2024-02-18T06:34:36.131Z,10.02
2024-02-18T06:37:04.661Z,8.75
2024-02-18T06:39:32.812Z,10.63
2024-02-18T06:42:00.938Z,8.85
2024-02-18T06:44:29.040Z,8.68
2024-02-18T06:46:58.508Z,8.43
2024-02-18T06:49:26.652Z,11.38
2024-02-18T06:51:54.872Z,8.80
2024-02-18T06:54:23.011Z,11.55
2024-02-18T06:56:51.146Z,8.23
2024-02-18T06:59:19.235Z,14.73
2024-02-18T07:01:47.406Z,18.95
2024-02-18T07:04:17.064Z,13.50
2024-02-18T07:06:45.394Z,14.48
2024-02-18T07:09:13.552Z,10.73
2024-02-18T07:11:41.641Z,11.57
2024-02-18T07:14:10.316Z,13.93
2024-02-18T07:16:38.447Z,13.38
2024-02-18T07:19:07.421Z,16.88
2024-02-18T07:21:37.028Z,14.25
2024-02-18T07:24:05.428Z,15.52
2024-02-18T07:26:33.596Z,17.65
2024-02-18T07:29:01.880Z,18.52
2024-02-18T07:31:31.713Z,15.68
2024-02-18T07:34:00.125Z,19.48
2024-02-18T07:36:29.098Z,24.85
2024-02-18T07:38:58.736Z,23.65
2024-02-18T07:41:27.706Z,25.27
2024-02-18T07:43:55.856Z,27.70
2024-02-18T07:46:24.000Z,26.65
2024-02-18T07:48:52.360Z,35.03
2024-02-18T07:51:20.644Z,34.88
2024-02-18T07:53:48.803Z,37.45
2024-02-18T07:56:18.266Z,38.13
2024-02-18T07:58:46.448Z,40.40
2024-02-18T08:01:14.608Z,40.88
2024-02-18T08:03:42.982Z,39.67
2024-02-18T08:06:11.292Z,41.97
2024-02-18T08:08:39.455Z,48.53
2024-02-18T08:11:07.679Z,42.33
2024-02-18T08:13:37.166Z,42.67
2024-02-18T08:16:05.702Z,44.53
2024-02-18T08:18:34.159Z,40.97
2024-02-18T08:21:02.327Z,57.47
2024-02-18T08:23:30.419Z,42.30
2024-02-18T08:25:58.552Z,47.80
2024-02-18T08:28:28.101Z,45.40
2024-02-18T08:30:58.354Z,45.55
2024-02-18T08:33:26.600Z,41.55
2024-02-18T08:35:56.016Z,43.90
2024-02-18T08:38:24.163Z,39.40
2024-02-18T08:40:52.275Z,39.92
2024-02-18T08:43:20.418Z,39.38
2024-02-18T08:45:48.650Z,38.13
2024-02-18T08:48:18.196Z,37.03
2024-02-18T08:50:46.359Z,32.88
2024-02-18T08:53:14.443Z,34.08
2024-02-18T08:55:42.540Z,34.92
2024-02-18T08:58:10.731Z,30.45
2024-02-18T09:00:38.936Z,30.30
2024-02-18T09:03:07.051Z,28.52
2024-02-18T09:05:36.563Z,31.33
2024-02-18T09:08:05.035Z,28.23
2024-02-18T09:10:33.336Z,29.05
2024-02-18T09:13:02.828Z,26.50
2024-02-18T09:15:31.364Z,27.13
2024-02-18T09:17:59.625Z,25.52
2024-02-18T09:20:29.207Z,27.67
2024-02-18T09:22:58.862Z,27.02
2024-02-18T09:25:27.051Z,25.90
2024-02-18T09:27:55.194Z,26.15
2024-02-18T09:30:23.334Z,27.10
2024-02-18T09:32:51.504Z,29.98
2024-02-18T09:35:19.857Z,29.60
2024-02-18T09:37:48.118Z,30.10
2024-02-18T09:40:17.803Z,27.75
2024-02-18T09:42:45.970Z,26.80
2024-02-18T09:45:15.323Z,24.95
2024-02-18T09:47:44.647Z,25.98
2024-02-18T09:50:14.792Z,26.52
2024-02-18T09:52:44.504Z,26.95
2024-02-18T09:55:13.609Z,26.27
2024-02-18T09:57:43.191Z,25.38
2024-02-18T10:00:12.142Z,24.25
2024-02-18T10:02:43.104Z,19.75
2024-02-18T10:05:12.497Z,21.48
2024-02-18T10:07:40.749Z,17.33
2024-02-18T10:10:09.917Z,18.00
2024-02-18T10:12:38.345Z,18.77
2024-02-18T10:15:09.036Z,18.42
2024-02-18T10:17:37.258Z,17.48
2024-02-18T10:20:06.511Z,16.33
2024-02-18T10:22:34.947Z,17.25
2024-02-18T10:25:04.538Z,16.13
2024-02-18T10:27:32.725Z,17.20
2024-02-18T10:30:00.823Z,18.00
2024-02-18T10:32:31.666Z,13.75
2024-02-18T10:34:59.953Z,14.98
2024-02-18T10:37:30.595Z,13.95
2024-02-18T10:40:01.815Z,12.75
2024-02-18T10:42:30.893Z,13.70
2024-02-18T10:44:59.665Z,13.32
2024-02-18T10:47:27.775Z,12.40
2024-02-18T10:50:02.770Z,13.38
2024-02-18T10:52:38.442Z,13.68
2024-02-18T10:55:11.825Z,14.65
2024-02-18T10:57:41.967Z,11.88
2024-02-18T11:00:11.887Z,11.18
2024-02-18T11:02:43.714Z,13.50
2024-02-18T11:05:13.274Z,11.25
2024-02-18T11:07:41.585Z,10.82
2024-02-18T11:10:10.098Z,12.00
2024-02-18T11:12:38.890Z,11.65
2024-02-18T11:15:09.033Z,10.50
2024-02-18T11:17:37.164Z,10.20
2024-02-18T11:20:05.938Z,11.45
2024-02-18T11:22:35.603Z,10.75
2024-02-18T11:25:05.383Z,10.82
2024-02-18T11:27:33.571Z,12.00
2024-02-18T11:30:01.809Z,11.68
2024-02-18T11:32:30.059Z,10.05
2024-02-18T11:34:58.294Z,12.00
2024-02-18T11:37:32.577Z,11.80
2024-02-18T11:40:11.658Z,9.80
2024-02-18T11:42:41.487Z,11.18
2024-02-18T11:45:12.821Z,11.82
2024-02-18T11:47:45.586Z,9.48
2024-02-18T11:50:13.860Z,10.90
2024-02-18T11:52:42.304Z,8.52
2024-02-18T11:55:17.242Z,9.77
2024-02-18T11:57:45.414Z,9.88
2024-02-18T12:00:14.707Z,10.93
2024-02-18T12:02:46.681Z,20.52
2024-02-18T12:05:14.872Z,12.32
2024-02-18T12:07:43.123Z,11.73
2024-02-18T12:10:11.762Z,13.07
2024-02-18T12:12:41.332Z,11.50
2024-02-18T12:15:10.214Z,10.48
2024-02-18T12:17:38.345Z,10.88
2024-02-18T12:20:08.256Z,15.95
2024-02-18T12:22:39.924Z,13.63
2024-02-18T12:25:10.711Z,14.15
2024-02-18T12:27:40.062Z,16.08
2024-02-18T12:30:10.514Z,11.90
2024-02-18T12:32:38.640Z,13.20
2024-02-18T12:35:07.433Z,12.75
2024-02-18T12:37:36.708Z,13.63
2024-02-18T12:40:06.726Z,12.55
2024-02-18T12:42:43.941Z,13.95
2024-02-18T12:45:42.057Z,16.05
2024-02-18T12:48:12.957Z,13.20
2024-02-18T12:50:41.323Z,17.17
2024-02-18T12:53:10.555Z,15.90
2024-02-18T12:55:39.586Z,15.55
2024-02-18T12:58:07.982Z,14.27
2024-02-18T13:00:37.721Z,16.70
2024-02-18T13:03:12.299Z,16.27
2024-02-18T13:05:41.016Z,15.85
2024-02-18T13:08:09.136Z,16.08
2024-02-18T13:10:37.427Z,15.85
2024-02-18T13:13:07.481Z,17.35
2024-02-18T13:15:37.135Z,14.98
2024-02-18T13:18:05.948Z,16.30
2024-02-18T13:20:34.201Z,15.88
2024-02-18T13:23:02.327Z,17.23
2024-02-18T13:25:30.466Z,15.80
2024-02-18T13:27:58.657Z,15.45
2024-02-18T13:30:26.870Z,19.83
2024-02-18T13:32:56.384Z,15.68
2024-02-18T13:35:24.545Z,16.55
2024-02-18T13:37:52.653Z,16.88
2024-02-18T13:40:20.885Z,17.77
2024-02-18T13:42:49.071Z,16.13
2024-02-18T13:45:17.412Z,19.02
2024-02-18T13:47:46.271Z,16.98
2024-02-18T13:50:15.891Z,16.88
2024-02-18T13:52:44.117Z,17.65
2024-02-18T13:55:12.237Z,17.60
2024-02-18T13:57:40.403Z,18.67
2024-02-18T14:00:09.804Z,16.75
2024-02-18T14:02:37.981Z,17.63
2024-02-18T14:05:07.075Z,17.45
2024-02-18T14:07:36.589Z,18.20
2024-02-18T14:10:05.585Z,16.42
2024-02-18T14:12:33.835Z,16.15
2024-02-18T14:15:02.244Z,18.73
2024-02-18T14:17:30.788Z,17.55
2024-02-18T14:19:59.193Z,16.88
2024-02-18T14:22:27.365Z,15.48
2024-02-18T14:24:58.874Z,16.92
2024-02-18T14:27:27.105Z,17.35
2024-02-18T14:29:55.253Z,16.40
2024-02-18T14:32:24.185Z,17.42
2024-02-18T14:34:54.533Z,17.85
2024-02-18T14:37:25.436Z,16.20
2024-02-18T14:39:53.778Z,15.43
2024-02-18T14:42:23.644Z,18.73
2024-02-18T14:44:54.830Z,17.15
2024-02-18T14:47:25.923Z,16.63
2024-02-18T14:49:54.111Z,18.77
2024-02-18T14:52:22.420Z,17.98
2024-02-18T14:54:50.691Z,19.42
2024-02-18T14:57:18.971Z,18.52
2024-02-18T14:59:48.861Z,17.45
2024-02-18T15:02:17.388Z,18.77
2024-02-18T15:04:45.771Z,20.90
2024-02-18T15:07:14.093Z,18.92
2024-02-18T15:09:42.407Z,17.42
2024-02-18T15:12:10.840Z,29.23
2024-02-18T15:14:39.067Z,30.00
2024-02-18T15:17:11.135Z,55.25
2024-02-18T15:19:39.388Z,40.63
2024-02-18T15:22:07.834Z,45.95
2024-02-18T15:24:36.077Z,39.97
2024-02-18T15:27:04.250Z,40.92
2024-02-18T15:29:32.705Z,37.70
2024-02-18T15:32:01.134Z,38.67
2024-02-18T15:34:30.992Z,40.22
2024-02-18T15:36:59.161Z,36.20
2024-02-18T15:39:27.845Z,36.55
2024-02-18T15:41:58.535Z,32.17
2024-02-18T15:44:27.227Z,35.63
2024-02-18T15:46:55.654Z,34.63
2024-02-18T15:49:24.941Z,32.72
2024-02-18T15:51:54.672Z,35.17
2024-02-18T15:54:23.375Z,34.90
2024-02-18T15:56:52.021Z,32.08
2024-02-18T15:59:20.438Z,33.00
2024-02-18T16:01:49.913Z,32.28
2024-02-18T16:04:18.347Z,29.40
2024-02-18T16:06:47.128Z,31.67
2024-02-18T16:09:16.925Z,29.60
2024-02-18T16:11:45.859Z,30.52
2024-02-18T16:14:14.734Z,28.23
2024-02-18T16:16:42.991Z,29.90
2024-02-18T16:19:11.699Z,30.55
2024-02-18T16:21:40.125Z,27.15
2024-02-18T16:24:08.425Z,27.65
2024-02-18T16:26:38.559Z,30.75
2024-02-18T16:29:06.873Z,28.25
2024-02-18T16:31:35.161Z,28.95
2024-02-18T16:34:06.049Z,27.92
2024-02-18T16:36:34.947Z,54.00
2024-02-18T16:39:04.140Z,27.50
2024-02-18T16:41:33.042Z,27.30
2024-02-18T16:44:02.836Z,24.20
2024-02-18T16:46:31.161Z,25.52
2024-02-18T16:48:59.287Z,26.88
2024-02-18T16:51:28.720Z,26.65
2024-02-18T16:53:57.563Z,24.67
2024-02-18T16:56:25.705Z,23.38
2024-02-18T16:58:54.155Z,24.00
2024-02-18T17:01:24.179Z,24.08
2024-02-18T17:03:53.704Z,24.55
2024-02-18T17:06:22.023Z,25.65
2024-02-18T17:08:50.263Z,24.35
2024-02-18T17:11:20.902Z,26.65
2024-02-18T17:13:50.199Z,25.58
2024-02-18T17:16:18.606Z,20.67
2024-02-18T17:18:49.923Z,21.80
2024-02-18T17:21:18.579Z,23.40
2024-02-18T17:23:46.714Z,26.08
2024-02-18T17:26:15.154Z,23.83
2024-02-18T17:28:43.278Z,23.45
2024-02-18T17:31:11.562Z,23.70
2024-02-18T17:33:40.466Z,22.63
2024-02-18T17:36:11.105Z,24.13
2024-02-18T17:38:39.397Z,22.70
2024-02-18T17:41:07.797Z,21.23
2024-02-18T17:43:36.112Z,23.63
2024-02-18T17:46:05.376Z,22.42
2024-02-18T17:48:34.202Z,21.35
2024-02-18T17:51:02.474Z,20.30
2024-02-18T17:53:32.240Z,20.85
2024-02-18T17:56:00.334Z,20.77
2024-02-18T17:58:29.632Z,19.45
2024-02-18T18:00:58.150Z,22.38
2024-02-18T18:03:26.506Z,20.70
2024-02-18T18:05:56.285Z,20.13
2024-02-18T18:08:24.660Z,20.98
2024-02-18T18:10:54.526Z,19.08
2024-02-18T18:13:23.438Z,22.55
2024-02-18T18:15:52.042Z,19.45
2024-02-18T18:18:20.347Z,19.98
2024-02-18T18:20:49.001Z,18.52
2024-02-18T18:23:17.304Z,18.58
2024-02-18T18:25:45.735Z,24.67
2024-02-18T18:28:16.018Z,21.55
2024-02-18T18:30:44.516Z,22.42
2024-02-18T18:33:13.145Z,20.08
2024-02-18T18:35:41.521Z,21.35
2024-02-18T18:38:09.931Z,24.85
2024-02-18T18:40:38.599Z,20.90
2024-02-18T18:43:06.704Z,22.02
2024-02-18T18:45:36.710Z,21.92
2024-02-18T18:48:05.487Z,21.92
2024-02-18T18:50:33.705Z,20.67
2024-02-18T18:53:01.807Z,21.92
2024-02-18T18:55:30.390Z,20.67
2024-02-18T18:58:00.248Z,20.70
2024-02-18T19:00:29.565Z,20.17
2024-02-18T19:02:59.331Z,22.00
2024-02-18T19:05:27.733Z,20.95
2024-02-18T19:07:56.114Z,20.55
2024-02-18T19:10:24.366Z,23.52
2024-02-18T19:12:52.555Z,22.25
2024-02-18T19:15:21.732Z,21.92
2024-02-18T19:17:52.230Z,23.30
2024-02-18T19:20:23.633Z,25.92
2024-02-18T19:22:53.524Z,24.33
2024-02-18T19:25:21.711Z,24.40
2024-02-18T19:27:50.289Z,23.20
2024-02-18T19:30:20.231Z,22.38
2024-02-18T19:32:49.443Z,36.13
2024-02-18T19:35:17.938Z,67.57
2024-02-18T19:37:47.840Z,69.22
2024-02-18T19:40:16.474Z,70.03
2024-02-18T19:42:46.027Z,70.30
2024-02-18T19:45:14.433Z,66.47
2024-02-18T19:47:42.901Z,72.53
2024-02-18T19:50:11.640Z,66.65
2024-02-18T19:52:39.826Z,64.88
2024-02-18T19:55:10.424Z,67.03
2024-02-18T19:57:40.095Z,63.22
2024-02-18T20:00:09.298Z,62.03
2024-02-18T20:02:40.194Z,62.25
2024-02-18T20:05:09.082Z,57.65
2024-02-18T20:07:37.372Z,59.28
2024-02-18T20:10:06.373Z,58.28
2024-02-18T20:12:37.270Z,60.47
2024-02-18T20:15:05.748Z,57.65
2024-02-18T20:17:34.245Z,57.70
2024-02-18T20:20:06.443Z,57.08
2024-02-18T20:22:34.778Z,60.47
2024-02-18T20:25:04.967Z,56.10
2024-02-18T20:27:34.674Z,55.78
2024-02-18T20:30:04.838Z,56.08
2024-02-18T20:32:33.030Z,58.95
2024-02-18T20:35:01.621Z,54.35
2024-02-18T20:37:31.021Z,54.42
2024-02-18T20:39:59.859Z,56.58
2024-02-18T20:42:28.674Z,52.30
2024-02-18T20:44:57.321Z,50.45
2024-02-18T20:47:27.044Z,50.78
2024-02-18T20:49:55.440Z,52.15
2024-02-18T20:52:26.210Z,52.53
2024-02-18T20:54:56.480Z,55.72
2024-02-18T20:57:24.898Z,51.10
2024-02-18T20:59:53.487Z,51.00
2024-02-18T21:02:21.679Z,51.63
2024-02-18T21:04:52.153Z,49.92
2024-02-18T21:07:20.770Z,51.08
2024-02-18T21:09:50.399Z,49.85
2024-02-18T21:12:18.632Z,47.90
2024-02-18T21:14:46.749Z,49.17
2024-02-18T21:17:15.032Z,48.92
2024-02-18T21:19:43.763Z,47.83
2024-02-18T21:22:14.029Z,47.58
2024-02-18T21:24:42.385Z,49.35
2024-02-18T21:27:11.020Z,45.05
2024-02-18T21:29:42.061Z,46.97
2024-02-18T21:32:10.361Z,46.17
2024-02-18T21:34:39.077Z,44.42
2024-02-18T21:37:07.410Z,46.13
2024-02-18T21:39:44.406Z,43.22
2024-02-18T21:42:17.024Z,46.45
2024-02-18T21:44:46.472Z,44.03
2024-02-18T21:47:15.351Z,41.33
2024-02-18T21:49:43.575Z,42.20
2024-02-18T21:52:12.637Z,42.13
2024-02-18T21:54:42.418Z,40.53
2024-02-18T21:57:10.630Z,39.47
2024-02-18T21:59:38.860Z,38.42
2024-02-18T22:02:07.528Z,39.65
2024-02-18T22:04:36.863Z,41.90
2024-02-18T22:07:13.644Z,40.78
2024-02-18T22:09:47.637Z,38.58
2024-02-18T22:12:16.315Z,38.28
2024-02-18T22:14:44.447Z,40.38
2024-02-18T22:17:12.580Z,37.28
2024-02-18T22:19:40.917Z,35.60
2024-02-18T22:22:09.285Z,38.65
2024-02-18T22:24:37.578Z,38.88
2024-02-18T22:27:08.580Z,34.80
2024-02-18T22:29:37.020Z,38.42
2024-02-18T22:32:05.813Z,35.55
2024-02-18T22:34:34.027Z,36.65
2024-02-18T22:37:02.292Z,38.03
2024-02-18T22:39:30.636Z,34.78
2024-02-18T22:42:01.640Z,35.28
2024-02-18T22:44:31.308Z,35.33
2024-02-18T22:46:59.417Z,34.65
2024-02-18T22:49:27.593Z,34.90
2024-02-18T22:51:56.565Z,34.70
2024-02-18T22:54:24.971Z,33.65
2024-02-18T22:56:53.912Z,34.40
2024-02-18T22:59:23.046Z,33.47
2024-02-18T23:01:54.047Z,34.00
2024-02-18T23:04:22.439Z,34.38
2024-02-18T23:06:50.747Z,35.05
2024-02-18T23:09:19.530Z,33.45
2024-02-18T23:11:47.728Z,30.52
2024-02-18T23:14:16.067Z,32.83
2024-02-18T23:16:44.374Z,32.10
2024-02-18T23:19:14.061Z,31.40
2024-02-18T23:21:42.734Z,31.13
2024-02-18T23:24:10.866Z,30.30
2024-02-18T23:26:38.960Z,29.10
2024-02-18T23:29:07.053Z,30.17
2024-02-18T23:31:38.846Z,30.35
2024-02-18T23:34:08.594Z,31.88
2024-02-18T23:36:39.521Z,31.10
2024-02-18T23:39:07.824Z,28.40
2024-02-18T23:41:36.039Z,27.58
2024-02-18T23:44:04.241Z,27.90
2024-02-18T23:46:32.415Z,28.30
2024-02-18T23:49:00.622Z,27.52
2024-02-18T23:51:28.800Z,26.55
2024-02-18T23:53:58.871Z,27.48
2024-02-18T23:56:32.010Z,26.38
2024-02-18T23:59:00.167Z,28.08
